Mitsukawa Maru — JD2495 — position and weather

sailwx.info

Track history (hours):
 
Tides and Currents Weather Stations Pressure Air Temp Water Temp Dewpoint Dewpoint Depression Visibility Wind Speed Wind Dir Waves Ship Positions

Mitsukawa Maru

Last reported at 2015-Sep-02 23:31 UTC. Time now 2015-Sep-02 23:55 UTC.
Position N 35°34' E 140°07'.

Length 105 m; draft 4.2 m.

Type: Cargo ship. MMSI: 431000326.

Date/timePositionNaut miles runAvg speedWind from/ knotsBaromVisibWave heightAir tempDewpointWater temp
2015-Sep-02 23:31N 35°34' E 140°07'0 0.1
2015-Sep-02 22:33N 35°34' E 140°07'5 5.3
2015-Sep-02 21:33N 35°34' E 140°00'0 0.0
2015-Sep-02 20:18N 35°34' E 140°00'0 0.0
2015-Sep-02 19:30N 35°34' E 140°00'0 0.1
2015-Sep-02 18:30N 35°34' E 140°00'0 0.1
2015-Sep-02 17:33N 35°34' E 140°00'9 8.5
2015-Sep-02 16:33N 35°29' E 139°52'1211.9
2015-Sep-02 15:33N 35°19' E 139°44'1110.8
2015-Sep-02 14:33N 35°09' E 139°46'1211.8
2015-Sep-02 13:33N 34°60' E 139°36'1212.0
2015-Sep-02 12:33N 34°52' E 139°25'226 5.2
2015-Aug-31 17:33N 34°07' E 134°56'1414.6
2015-Aug-31 16:33N 34°22' E 134°59'1413.7
2015-Aug-31 15:33N 34°35' E 135°03'  
2015-Aug-28 19:10N 34°32' E 138°35'6313.6
2015-Aug-28 14:33N 35°06' E 139°39'1212.4
2015-Aug-28 13:33N 35°17' E 139°45'1111.4
2015-Aug-28 12:33N 35°28' E 139°49'1413.9
2015-Aug-28 11:33N 35°35' E 140°04'3 2.5
2015-Aug-28 10:29N 35°34' E 140°07'0 0.0
2015-Aug-28 09:26N 35°34' E 140°07'0 0.0
2015-Aug-28 08:32N 35°34' E 140°07'0 0.0
2015-Aug-28 07:23N 35°34' E 140°07'0 0.0
2015-Aug-28 06:32N 35°34' E 140°07'0 0.0
2015-Aug-28 05:32N 35°34' E 140°07'0 0.0
2015-Aug-28 04:32N 35°34' E 140°07'0 0.0
2015-Aug-28 03:29N 35°34' E 140°07'0 0.0
2015-Aug-28 02:23N 35°34' E 140°07'0 0.0
2015-Aug-28 01:23N 35°34' E 140°07'0 0.0
2015-Aug-28 00:32N 35°34' E 140°07'0 0.0
2015-Aug-27 23:32N 35°34' E 140°07'0 0.1
2015-Aug-27 22:33N 35°34' E 140°07'6 5.7
2015-Aug-27 21:33N 35°34' E 139°60'8 7.9
2015-Aug-27 20:33N 35°29' E 139°52'9 9.2
2015-Aug-27 19:33N 35°22' E 139°45'9 8.7
2015-Aug-27 18:33N 35°13' E 139°47'1111.1
2015-Aug-27 17:33N 35°03' E 139°41'  
Track history (hours):
 
Tides and Currents Weather Stations Pressure Air Temp Water Temp Dewpoint Dewpoint Depression Visibility Wind Speed Wind Dir Waves Ship Positions

Mitsukawa Maru

Last reported at 2015-Sep-02 23:31 UTC. Time now 2015-Sep-02 23:55 UTC.
Position N 35°34' E 140°07'.

Length 105 m; draft 4.2 m.

Type: Cargo ship. MMSI: 431000326.

Date/timePositionNaut miles runAvg speedWind from/ knotsBaromVisibWave heightAir tempDewpointWater temp
2015-Sep-02 23:31N 35°34' E 140°07'0 0.1
2015-Sep-02 22:33N 35°34' E 140°07'5 5.3
2015-Sep-02 21:33N 35°34' E 140°00'0 0.0
2015-Sep-02 20:18N 35°34' E 140°00'0 0.0
2015-Sep-02 19:30N 35°34' E 140°00'0 0.1
2015-Sep-02 18:30N 35°34' E 140°00'0 0.1
2015-Sep-02 17:33N 35°34' E 140°00'9 8.5
2015-Sep-02 16:33N 35°29' E 139°52'1211.9
2015-Sep-02 15:33N 35°19' E 139°44'1110.8
2015-Sep-02 14:33N 35°09' E 139°46'1211.8
2015-Sep-02 13:33N 34°60' E 139°36'1212.0
2015-Sep-02 12:33N 34°52' E 139°25'226 5.2
2015-Aug-31 17:33N 34°07' E 134°56'1414.6
2015-Aug-31 16:33N 34°22' E 134°59'1413.7
2015-Aug-31 15:33N 34°35' E 135°03'  
2015-Aug-28 19:10N 34°32' E 138°35'6313.6
2015-Aug-28 14:33N 35°06' E 139°39'1212.4
2015-Aug-28 13:33N 35°17' E 139°45'1111.4
2015-Aug-28 12:33N 35°28' E 139°49'1413.9
2015-Aug-28 11:33N 35°35' E 140°04'3 2.5
2015-Aug-28 10:29N 35°34' E 140°07'0 0.0
2015-Aug-28 09:26N 35°34' E 140°07'0 0.0
2015-Aug-28 08:32N 35°34' E 140°07'0 0.0
2015-Aug-28 07:23N 35°34' E 140°07'0 0.0
2015-Aug-28 06:32N 35°34' E 140°07'0 0.0
2015-Aug-28 05:32N 35°34' E 140°07'0 0.0
2015-Aug-28 04:32N 35°34' E 140°07'0 0.0
2015-Aug-28 03:29N 35°34' E 140°07'0 0.0
2015-Aug-28 02:23N 35°34' E 140°07'0 0.0
2015-Aug-28 01:23N 35°34' E 140°07'0 0.0
2015-Aug-28 00:32N 35°34' E 140°07'0 0.0
2015-Aug-27 23:32N 35°34' E 140°07'0 0.1
2015-Aug-27 22:33N 35°34' E 140°07'6 5.7
2015-Aug-27 21:33N 35°34' E 139°60'8 7.9
2015-Aug-27 20:33N 35°29' E 139°52'9 9.2
2015-Aug-27 19:33N 35°22' E 139°45'9 8.7
2015-Aug-27 18:33N 35°13' E 139°47'1111.1
2015-Aug-27 17:33N 35°03' E 139°41'  

Dump ship's entire track history